Time;durP1;ratioP1;P1;durP2;ratioP2;P2;SDS_P1;SDS_P2;PMS_P1;PMS_P2;Temp;Humidity;BMP_temperature;BMP_pressure;BME280_temperature;BME280_humidity;BME280_pressure;Samples;Min_cycle;Max_cycle;Signal;HPM_P1;HPM_P2
2023/07/30 00:00:53;;;;;;;;;;;26.10;55.00;;;;;;5072778;28;19974;-56
2023/07/30 00:03:20;;;;;;;;;;;26.00;55.00;;;;;;5073343;28;19985;-56
2023/07/30 00:05:54;;;;;;;;;;;26.00;55.00;;;;;;5092521;28;20003;-55
2023/07/30 00:08:22;;;;;;;;;;;26.00;55.00;;;;;;5093079;28;19924;-56
2023/07/30 00:10:49;;;;;;;;;;;26.00;55.10;;;;;;5091697;28;19931;-57
2023/07/30 00:13:16;;;;;;;;;;;26.00;55.10;;;;;;5093216;28;19964;-56
2023/07/30 00:15:45;;;;;;;;;;;26.00;55.10;;;;;;5092599;28;20343;-54
2023/07/30 00:18:12;;;;;;;;;;;26.00;55.10;;;;;;5093293;28;19931;-56
2023/07/30 00:20:39;;;;;;;;;;;26.00;55.10;;;;;;5091902;28;19936;-55
2023/07/30 00:23:06;;;;;;;;;;;26.00;55.10;;;;;;5093147;28;19977;-55
2023/07/30 00:25:33;;;;;;;;;;;26.00;55.10;;;;;;5093088;28;19982;-56
2023/07/30 00:28:00;;;;;;;;;;;26.00;55.10;;;;;;5094606;28;19974;-54
2023/07/30 00:30:27;;;;;;;;;;;26.00;55.10;;;;;;5112578;28;20300;-54
2023/07/30 00:32:54;;;;;;;;;;;26.00;55.10;;;;;;5117192;28;19971;-55
2023/07/30 00:35:22;;;;;;;;;;;26.00;55.20;;;;;;5116762;28;19923;-57
2023/07/30 00:37:49;;;;;;;;;;;26.00;55.20;;;;;;5117178;28;19980;-56
2023/07/30 00:40:17;;;;;;;;;;;26.00;55.20;;;;;;5116372;28;19923;-52
2023/07/30 00:42:44;;;;;;;;;;;26.00;55.20;;;;;;5117164;28;20085;-55
2023/07/30 00:45:11;;;;;;;;;;;25.90;55.10;;;;;;5116252;28;19938;-53
2023/07/30 00:47:38;;;;;;;;;;;25.90;55.10;;;;;;5116555;28;19976;-55
2023/07/30 00:50:06;;;;;;;;;;;25.90;55.10;;;;;;5116663;28;19927;-55
2023/07/30 00:52:33;;;;;;;;;;;25.90;55.10;;;;;;5116590;27;19928;-54
2023/07/30 00:55:02;;;;;;;;;;;25.90;55.10;;;;;;5115460;27;19961;-56
2023/07/30 00:57:29;;;;;;;;;;;25.90;55.10;;;;;;5116438;28;19946;-56
2023/07/30 00:59:57;;;;;;;;;;;25.90;55.20;;;;;;5116280;28;19923;-56
2023/07/30 01:02:24;;;;;;;;;;;25.90;55.10;;;;;;5116303;28;20131;-56
2023/07/30 01:04:51;;;;;;;;;;;25.90;55.20;;;;;;5115967;28;19924;-56
2023/07/30 01:07:18;;;;;;;;;;;25.90;55.20;;;;;;5097803;28;19960;-55
2023/07/30 01:09:45;;;;;;;;;;;25.90;55.10;;;;;;5095557;28;19930;-56
2023/07/30 01:12:13;;;;;;;;;;;25.90;55.10;;;;;;5096151;28;20014;-56
2023/07/30 01:14:40;;;;;;;;;;;25.90;55.10;;;;;;5095383;28;20407;-55
2023/07/30 01:17:08;;;;;;;;;;;25.90;55.10;;;;;;5095637;28;19967;-55
2023/07/30 01:19:34;;;;;;;;;;;25.90;55.10;;;;;;5095315;28;19986;-56
2023/07/30 01:22:01;;;;;;;;;;;26.00;55.10;;;;;;5094575;28;19931;-56
2023/07/30 01:24:28;;;;;;;;;;;26.00;55.10;;;;;;5101341;28;19966;-56
2023/07/30 01:26:58;;;;;;;;;;;26.00;55.10;;;;;;5115472;28;19985;-55
2023/07/30 01:29:35;;;;;;;;;;;26.00;55.60;;;;;;5115078;28;19924;-56
2023/07/30 01:32:04;;;;;;;;;;;26.00;55.10;;;;;;5115780;28;19963;-56
2023/07/30 01:34:34;;;;;;;;;;;26.00;55.10;;;;;;5114790;28;19930;-56
2023/07/30 01:37:01;;;;;;;;;;;26.00;55.00;;;;;;5114917;28;20030;-56
2023/07/30 01:39:29;;;;;;;;;;;26.00;55.00;;;;;;5114568;28;20006;-55
2023/07/30 01:41:56;;;;;;;;;;;26.00;55.10;;;;;;5114754;28;19971;-55
2023/07/30 01:44:23;;;;;;;;;;;25.90;55.00;;;;;;5103518;28;19971;-56
2023/07/30 01:46:50;;;;;;;;;;;25.90;55.10;;;;;;5094373;28;19977;-54
2023/07/30 01:49:17;;;;;;;;;;;25.90;55.00;;;;;;5095734;28;19977;-56
2023/07/30 01:51:44;;;;;;;;;;;25.90;55.60;;;;;;5115128;28;19924;-55
2023/07/30 01:54:11;;;;;;;;;;;25.90;55.10;;;;;;5114626;28;20014;-54
2023/07/30 01:56:39;;;;;;;;;;;25.90;55.10;;;;;;5114362;28;19923;-55
2023/07/30 01:59:05;;;;;;;;;;;25.90;55.10;;;;;;5115355;28;19928;-55
2023/07/30 02:01:32;;;;;;;;;;;25.90;55.10;;;;;;5114432;28;19975;-57
2023/07/30 02:03:59;;;;;;;;;;;25.90;55.10;;;;;;5107685;28;19931;-56
2023/07/30 02:06:26;;;;;;;;;;;25.90;55.10;;;;;;5093979;28;19969;-55
2023/07/30 02:08:53;;;;;;;;;;;25.90;55.10;;;;;;5094365;28;19967;-56
2023/07/30 02:11:20;;;;;;;;;;;25.90;55.10;;;;;;5094204;28;20257;-55
2023/07/30 02:13:47;;;;;;;;;;;25.90;55.10;;;;;;5094652;28;20018;-55
2023/07/30 02:16:15;;;;;;;;;;;25.90;55.10;;;;;;5093789;28;20023;-56
2023/07/30 02:18:45;;;;;;;;;;;25.90;55.10;;;;;;5094707;28;19931;-56
2023/07/30 02:21:12;;;;;;;;;;;25.90;55.20;;;;;;5092693;28;20379;-55
2023/07/30 02:23:39;;;;;;;;;;;25.90;55.10;;;;;;5093554;28;20402;-55
2023/07/30 02:26:06;;;;;;;;;;;25.90;55.10;;;;;;5093948;28;19963;-56
2023/07/30 02:28:35;;;;;;;;;;;25.90;55.10;;;;;;5094212;28;19925;-58
2023/07/30 02:31:02;;;;;;;;;;;25.90;55.20;;;;;;5093233;28;19924;-56
2023/07/30 02:33:29;;;;;;;;;;;25.90;55.10;;;;;;5094562;28;19924;-55
2023/07/30 02:35:56;;;;;;;;;;;25.90;55.20;;;;;;5093500;28;20011;-56
2023/07/30 02:38:23;;;;;;;;;;;25.90;55.20;;;;;;5093731;28;19970;-56
2023/07/30 02:40:50;;;;;;;;;;;25.90;55.20;;;;;;5093383;28;19977;-56
2023/07/30 02:43:17;;;;;;;;;;;25.90;55.20;;;;;;5093824;28;19924;-56
2023/07/30 02:45:46;;;;;;;;;;;25.90;55.20;;;;;;5093615;28;19930;-57
2023/07/30 02:48:13;;;;;;;;;;;25.90;55.10;;;;;;5094041;28;19924;-56
2023/07/30 02:50:40;;;;;;;;;;;25.90;55.10;;;;;;5092299;28;19970;-58
2023/07/30 02:53:08;;;;;;;;;;;25.90;55.10;;;;;;5092828;28;20380;-56
2023/07/30 02:55:34;;;;;;;;;;;25.90;55.10;;;;;;5093087;28;19924;-56
2023/07/30 02:58:01;;;;;;;;;;;25.90;55.00;;;;;;5092271;28;19973;-57
2023/07/30 03:00:29;;;;;;;;;;;25.90;55.00;;;;;;5092531;28;19924;-56
2023/07/30 03:02:56;;;;;;;;;;;25.90;55.00;;;;;;5093634;28;19967;-56
2023/07/30 03:05:23;;;;;;;;;;;25.90;55.00;;;;;;5093642;28;19983;-56
2023/07/30 03:07:50;;;;;;;;;;;25.90;55.00;;;;;;5093607;28;19932;-56
2023/07/30 03:10:17;;;;;;;;;;;25.90;55.00;;;;;;5092928;28;20019;-56
2023/07/30 03:12:44;;;;;;;;;;;25.90;55.00;;;;;;5093145;28;20411;-57
2023/07/30 03:15:11;;;;;;;;;;;25.90;55.00;;;;;;5097248;28;19950;-56
2023/07/30 03:17:38;;;;;;;;;;;25.90;54.90;;;;;;5113704;28;19924;-57
2023/07/30 03:20:05;;;;;;;;;;;26.00;55.00;;;;;;5094632;28;19932;-55
2023/07/30 03:22:32;;;;;;;;;;;25.90;54.90;;;;;;5092875;28;19974;-56
2023/07/30 03:24:59;;;;;;;;;;;25.90;54.90;;;;;;5093251;28;19936;-57
2023/07/30 03:27:26;;;;;;;;;;;25.90;55.00;;;;;;5093687;28;19967;-56
2023/07/30 03:29:54;;;;;;;;;;;26.00;55.00;;;;;;5092395;28;19973;-56
2023/07/30 03:32:21;;;;;;;;;;;25.90;55.00;;;;;;5093234;28;19924;-56
2023/07/30 03:34:48;;;;;;;;;;;25.90;55.00;;;;;;5092709;28;20388;-56
2023/07/30 03:37:15;;;;;;;;;;;25.90;55.00;;;;;;5106731;28;20027;-56
2023/07/30 03:39:42;;;;;;;;;;;25.90;55.00;;;;;;5092757;28;20372;-56
2023/07/30 03:42:09;;;;;;;;;;;25.90;55.00;;;;;;5092480;28;19977;-56
2023/07/30 03:44:36;;;;;;;;;;;25.90;55.00;;;;;;5092760;28;19930;-56
2023/07/30 03:47:03;;;;;;;;;;;25.90;55.00;;;;;;5092342;28;19928;-56
2023/07/30 03:49:30;;;;;;;;;;;25.90;55.00;;;;;;5092881;28;20019;-55
2023/07/30 03:51:57;;;;;;;;;;;25.90;55.00;;;;;;5099276;28;19978;-53
2023/07/30 03:54:25;;;;;;;;;;;25.90;55.00;;;;;;5113362;28;20317;-57
2023/07/30 03:56:52;;;;;;;;;;;25.90;55.00;;;;;;5112411;28;19975;-57
2023/07/30 03:59:18;;;;;;;;;;;25.90;55.00;;;;;;5113367;28;19959;-56
2023/07/30 04:01:45;;;;;;;;;;;25.90;55.00;;;;;;5112862;28;19927;-55
2023/07/30 04:04:12;;;;;;;;;;;25.90;55.00;;;;;;5116871;28;19953;-56
2023/07/30 04:06:39;;;;;;;;;;;25.90;55.00;;;;;;5116051;28;19963;-54
2023/07/30 04:09:06;;;;;;;;;;;25.90;55.00;;;;;;5103262;28;20451;-56
2023/07/30 04:11:33;;;;;;;;;;;25.90;55.00;;;;;;5096498;28;19966;-56
2023/07/30 04:14:00;;;;;;;;;;;25.90;55.00;;;;;;5096790;28;19924;-56
2023/07/30 04:16:28;;;;;;;;;;;25.90;55.00;;;;;;5096467;28;19966;-55
2023/07/30 04:18:55;;;;;;;;;;;25.90;54.90;;;;;;5095893;28;19924;-56
2023/07/30 04:21:22;;;;;;;;;;;25.90;54.90;;;;;;5095919;28;20381;-56
2023/07/30 04:23:48;;;;;;;;;;;26.00;54.90;;;;;;5096126;28;19990;-56
2023/07/30 04:26:16;;;;;;;;;;;26.00;54.90;;;;;;5096138;28;20215;-56
2023/07/30 04:28:43;;;;;;;;;;;26.00;54.90;;;;;;5096124;28;20019;-56
2023/07/30 04:31:10;;;;;;;;;;;26.00;54.80;;;;;;5096572;28;19974;-55
2023/07/30 04:33:37;;;;;;;;;;;26.00;54.80;;;;;;5096087;28;20391;-56
2023/07/30 04:36:04;;;;;;;;;;;26.00;54.70;;;;;;5094906;28;19930;-56
2023/07/30 04:38:31;;;;;;;;;;;26.00;54.90;;;;;;5095144;28;20019;-56
2023/07/30 04:40:58;;;;;;;;;;;25.90;55.00;;;;;;5095678;28;19971;-56
2023/07/30 04:43:25;;;;;;;;;;;25.80;55.30;;;;;;5110861;28;19924;-56
2023/07/30 04:45:52;;;;;;;;;;;25.70;55.70;;;;;;5116451;28;19974;-56
2023/07/30 04:48:19;;;;;;;;;;;25.50;55.40;;;;;;5106769;28;20265;-55
2023/07/30 04:50:46;;;;;;;;;;;25.20;53.70;;;;;;5096382;28;19971;-56
2023/07/30 04:53:13;;;;;;;;;;;24.90;52.40;;;;;;5096241;28;20349;-55
2023/07/30 04:55:40;;;;;;;;;;;24.70;51.50;;;;;;5095894;28;20345;-55
2023/07/30 04:58:07;;;;;;;;;;;24.40;50.60;;;;;;5095683;28;19979;-55
2023/07/30 05:00:34;;;;;;;;;;;24.10;50.60;;;;;;5082451;28;19924;-56
2023/07/30 05:03:01;;;;;;;;;;;23.90;50.30;;;;;;5078830;28;19928;-57
2023/07/30 05:05:28;;;;;;;;;;;23.60;49.80;;;;;;5093304;28;20022;-55
2023/07/30 05:07:55;;;;;;;;;;;23.40;49.30;;;;;;5088533;28;19930;-55
2023/07/30 05:10:22;;;;;;;;;;;23.10;49.30;;;;;;5094897;28;19936;-55
2023/07/30 05:12:49;;;;;;;;;;;22.80;48.80;;;;;;5094625;28;20277;-55
2023/07/30 05:15:16;;;;;;;;;;;22.60;49.50;;;;;;5094366;28;19981;-56
2023/07/30 05:17:44;;;;;;;;;;;22.30;48.80;;;;;;5096197;28;20023;-52
2023/07/30 05:20:11;;;;;;;;;;;22.10;49.70;;;;;;5095392;28;19924;-54
2023/07/30 05:22:38;;;;;;;;;;;21.90;50.00;;;;;;5095721;28;19924;-55
2023/07/30 05:25:05;;;;;;;;;;;21.70;51.40;;;;;;5095710;28;19972;-55
2023/07/30 05:27:32;;;;;;;;;;;21.60;52.00;;;;;;5095441;28;19983;-55
2023/07/30 05:29:59;;;;;;;;;;;21.40;51.80;;;;;;5095461;28;19924;-55
2023/07/30 05:32:26;;;;;;;;;;;21.30;52.30;;;;;;5095502;28;19928;-56
2023/07/30 05:34:53;;;;;;;;;;;21.20;52.70;;;;;;5094910;28;19924;-54
2023/07/30 05:37:20;;;;;;;;;;;21.20;53.60;;;;;;5094431;28;19928;-55
2023/07/30 05:39:47;;;;;;;;;;;21.10;52.70;;;;;;5095439;28;19924;-56
2023/07/30 05:42:14;;;;;;;;;;;21.10;53.10;;;;;;5095123;28;20385;-56
2023/07/30 05:44:41;;;;;;;;;;;21.00;53.40;;;;;;5094831;28;19983;-56
2023/07/30 05:47:08;;;;;;;;;;;21.00;53.40;;;;;;5095270;28;19975;-55
2023/07/30 05:49:35;;;;;;;;;;;20.90;53.80;;;;;;5095125;28;20372;-55
2023/07/30 05:52:02;;;;;;;;;;;20.90;53.10;;;;;;5095359;28;19998;-55
2023/07/30 05:54:30;;;;;;;;;;;20.80;53.90;;;;;;5091522;28;20003;-56
2023/07/30 05:56:57;;;;;;;;;;;20.80;53.90;;;;;;5093883;28;20354;-55
2023/07/30 05:59:23;;;;;;;;;;;20.70;53.90;;;;;;5090402;28;20438;-55
2023/07/30 06:01:50;;;;;;;;;;;20.70;54.00;;;;;;5082120;28;19971;-55
2023/07/30 06:04:18;;;;;;;;;;;20.70;54.50;;;;;;5080101;28;19989;-55
2023/07/30 06:06:44;;;;;;;;;;;20.70;54.50;;;;;;5077886;28;20428;-55
2023/07/30 06:09:12;;;;;;;;;;;20.60;54.70;;;;;;5074996;28;19982;-55
2023/07/30 06:11:39;;;;;;;;;;;20.60;54.50;;;;;;5086026;28;19924;-53
2023/07/30 06:14:06;;;;;;;;;;;20.60;54.60;;;;;;5080843;28;19928;-55
2023/07/30 06:16:34;;;;;;;;;;;20.60;55.40;;;;;;5084242;28;19924;-54
2023/07/30 06:19:01;;;;;;;;;;;20.60;54.70;;;;;;5073142;28;19932;-55
2023/07/30 06:21:28;;;;;;;;;;;20.60;54.70;;;;;;5077379;28;19962;-55
2023/07/30 06:23:55;;;;;;;;;;;20.60;55.50;;;;;;5084860;28;19924;-54
2023/07/30 06:26:21;;;;;;;;;;;20.50;56.20;;;;;;5083536;28;19935;-55
2023/07/30 06:28:49;;;;;;;;;;;20.50;56.00;;;;;;5079774;28;20004;-54
2023/07/30 06:31:16;;;;;;;;;;;20.50;55.90;;;;;;5079908;28;20398;-56
2023/07/30 06:33:43;;;;;;;;;;;20.50;57.50;;;;;;5082727;28;19924;-54
2023/07/30 06:36:10;;;;;;;;;;;20.40;57.80;;;;;;5075161;28;20009;-55
2023/07/30 06:38:37;;;;;;;;;;;20.40;56.70;;;;;;5086647;28;19928;-55
2023/07/30 06:41:05;;;;;;;;;;;20.40;59.20;;;;;;5072425;28;19936;-55
2023/07/30 06:43:31;;;;;;;;;;;20.30;58.50;;;;;;5076491;28;19979;-54
2023/07/30 06:45:58;;;;;;;;;;;20.30;60.80;;;;;;5079503;28;20444;-55
2023/07/30 06:48:25;;;;;;;;;;;20.30;58.70;;;;;;5082668;28;20261;-53
2023/07/30 06:50:53;;;;;;;;;;;20.30;58.70;;;;;;5082617;28;20360;-55
2023/07/30 06:53:20;;;;;;;;;;;20.30;59.30;;;;;;5089086;28;19924;-56
2023/07/30 06:55:47;;;;;;;;;;;20.30;58.60;;;;;;5072485;28;20369;-56
2023/07/30 06:58:14;;;;;;;;;;;20.20;59.40;;;;;;5084297;28;19994;-56
2023/07/30 07:00:41;;;;;;;;;;;20.20;60.10;;;;;;5092591;28;20014;-55
2023/07/30 07:03:08;;;;;;;;;;;20.20;58.30;;;;;;5104595;28;19931;-56
2023/07/30 07:05:35;;;;;;;;;;;20.20;58.40;;;;;;5072840;28;20403;-56
2023/07/30 07:08:02;;;;;;;;;;;20.20;60.30;;;;;;5084208;28;19975;-55
2023/07/30 07:10:29;;;;;;;;;;;20.20;57.90;;;;;;5078859;28;19972;-55
2023/07/30 07:12:56;;;;;;;;;;;20.20;59.00;;;;;;5081017;28;20019;-55
2023/07/30 07:15:23;;;;;;;;;;;20.20;58.70;;;;;;5076916;28;19969;-56
2023/07/30 07:17:50;;;;;;;;;;;20.10;58.30;;;;;;5086331;28;20027;-56
2023/07/30 07:20:18;;;;;;;;;;;20.10;58.80;;;;;;5074169;28;20030;-55
2023/07/30 07:22:45;;;;;;;;;;;20.10;58.60;;;;;;5085034;28;19971;-54
2023/07/30 07:25:12;;;;;;;;;;;20.10;60.30;;;;;;5085219;28;19967;-55
2023/07/30 07:27:39;;;;;;;;;;;20.10;59.40;;;;;;5083552;28;19928;-55
2023/07/30 07:30:06;;;;;;;;;;;20.10;60.60;;;;;;5074247;28;19946;-55
2023/07/30 07:32:37;;;;;;;;;;;20.10;59.10;;;;;;5081331;28;19932;-55
2023/07/30 07:35:05;;;;;;;;;;;20.10;60.80;;;;;;5085393;28;19924;-55
2023/07/30 07:37:32;;;;;;;;;;;20.00;60.80;;;;;;5083674;28;20010;-55
2023/07/30 07:40:00;;;;;;;;;;;20.00;60.90;;;;;;5082896;28;19931;-55
2023/07/30 07:42:27;;;;;;;;;;;20.00;60.70;;;;;;5102848;28;20086;-58
2023/07/30 07:44:53;;;;;;;;;;;20.00;59.20;;;;;;5114672;28;20273;-56
2023/07/30 07:47:20;;;;;;;;;;;20.00;61.30;;;;;;5094777;28;19969;-55
2023/07/30 07:49:48;;;;;;;;;;;20.00;59.40;;;;;;5114107;27;19935;-56
2023/07/30 07:52:15;;;;;;;;;;;19.90;60.50;;;;;;5085174;28;19978;-56
2023/07/30 07:54:42;;;;;;;;;;;19.90;58.50;;;;;;5097833;28;20003;-56
2023/07/30 07:57:09;;;;;;;;;;;19.90;59.70;;;;;;5086938;28;20023;-53
2023/07/30 07:59:36;;;;;;;;;;;19.90;59.30;;;;;;5078858;28;19928;-56
2023/07/30 08:02:04;;;;;;;;;;;19.80;60.30;;;;;;5082938;28;20110;-54
2023/07/30 08:04:31;;;;;;;;;;;19.80;60.30;;;;;;5100150;28;19982;-57
2023/07/30 08:07:02;;;;;;;;;;;19.70;58.90;;;;;;5084015;28;19932;-55
2023/07/30 08:09:30;;;;;;;;;;;19.70;59.60;;;;;;5098525;28;19939;-58
2023/07/30 08:11:57;;;;;;;;;;;19.70;58.10;;;;;;5091449;28;20027;-58
2023/07/30 08:14:24;;;;;;;;;;;19.70;59.00;;;;;;5099324;28;20014;-51
2023/07/30 08:16:51;;;;;;;;;;;19.60;59.60;;;;;;5098218;28;19959;-56
2023/07/30 08:19:18;;;;;;;;;;;19.60;59.20;;;;;;5099658;28;20041;-58
2023/07/30 08:21:46;;;;;;;;;;;19.50;58.70;;;;;;5084782;28;20007;-56
2023/07/30 08:24:13;;;;;;;;;;;19.50;58.50;;;;;;5095192;28;20003;-56
2023/07/30 08:26:41;;;;;;;;;;;19.50;61.00;;;;;;5097340;28;20023;-53
2023/07/30 08:29:10;;;;;;;;;;;19.40;60.00;;;;;;5091926;28;19974;-57
2023/07/30 08:31:37;;;;;;;;;;;19.40;59.30;;;;;;5079172;28;19931;-54
2023/07/30 08:34:04;;;;;;;;;;;19.40;58.70;;;;;;5090771;28;19924;-56
2023/07/30 08:36:31;;;;;;;;;;;19.40;59.10;;;;;;5080915;28;19964;-58
2023/07/30 08:38:59;;;;;;;;;;;19.30;58.90;;;;;;5095358;28;20436;-56
2023/07/30 08:41:26;;;;;;;;;;;19.20;57.20;;;;;;5089670;28;20020;-56
2023/07/30 08:43:53;;;;;;;;;;;19.10;57.30;;;;;;5080260;28;19925;-55
2023/07/30 08:46:20;;;;;;;;;;;19.10;56.60;;;;;;5088761;28;20014;-55
2023/07/30 08:48:47;;;;;;;;;;;19.10;57.80;;;;;;5093072;28;19924;-55
2023/07/30 08:51:18;;;;;;;;;;;19.00;58.50;;;;;;5086078;28;19951;-56
2023/07/30 08:53:46;;;;;;;;;;;19.00;56.90;;;;;;5078002;28;20005;-55
2023/07/30 08:56:13;;;;;;;;;;;18.90;55.80;;;;;;5076619;28;20042;-55
2023/07/30 08:58:40;;;;;;;;;;;18.90;59.50;;;;;;5095888;28;19977;-55
2023/07/30 09:01:12;;;;;;;;;;;18.90;57.10;;;;;;5083749;28;19972;-56
2023/07/30 09:03:39;;;;;;;;;;;18.90;56.70;;;;;;5089329;28;19924;-57
2023/07/30 09:06:06;;;;;;;;;;;18.90;57.80;;;;;;5081027;28;19975;-55
2023/07/30 09:08:33;;;;;;;;;;;18.90;58.80;;;;;;5095355;28;20006;-57
2023/07/30 09:11:08;;;;;;;;;;;18.80;57.60;;;;;;5093776;28;19928;-54
2023/07/30 09:13:39;;;;;;;;;;;18.80;57.10;;;;;;5091241;28;19924;-55
2023/07/30 09:16:11;;;;;;;;;;;18.80;57.30;;;;;;5077777;28;19925;-54
2023/07/30 09:18:40;;;;;;;;;;;18.80;56.50;;;;;;5079681;28;19928;-55
2023/07/30 09:21:08;;;;;;;;;;;18.80;57.10;;;;;;5074581;28;19979;-51
2023/07/30 09:23:42;;;;;;;;;;;18.80;57.10;;;;;;5087511;28;19931;-56
2023/07/30 09:26:09;;;;;;;;;;;18.80;59.20;;;;;;5095344;28;19924;-55
2023/07/30 09:28:37;;;;;;;;;;;18.80;58.70;;;;;;5095540;28;19928;-54
2023/07/30 09:31:04;;;;;;;;;;;18.80;58.60;;;;;;5094856;28;20011;-56
2023/07/30 09:33:47;;;;;;;;;;;18.80;60.50;;;;;;5095010;28;19930;-55
2023/07/30 09:36:15;;;;;;;;;;;18.80;60.70;;;;;;5102913;28;19923;-55
2023/07/30 09:38:42;;;;;;;;;;;18.90;59.00;;;;;;5114652;28;20022;-51
2023/07/30 09:41:11;;;;;;;;;;;18.90;59.70;;;;;;5114693;28;20026;-52
2023/07/30 09:43:38;;;;;;;;;;;18.90;57.80;;;;;;5115305;28;20015;-52
2023/07/30 09:46:06;;;;;;;;;;;18.90;57.70;;;;;;5115060;28;19959;-55
2023/07/30 09:48:34;;;;;;;;;;;18.90;57.60;;;;;;5115751;28;19954;-51
2023/07/30 09:51:02;;;;;;;;;;;18.90;58.10;;;;;;5114904;28;19934;-55
2023/07/30 09:53:30;;;;;;;;;;;18.90;56.70;;;;;;5114856;28;19928;-51
2023/07/30 09:55:57;;;;;;;;;;;18.90;58.20;;;;;;5114258;28;19924;-55
2023/07/30 09:58:24;;;;;;;;;;;18.90;58.80;;;;;;5114763;28;19969;-55
2023/07/30 10:00:51;;;;;;;;;;;18.90;59.10;;;;;;5114027;28;20018;-55
2023/07/30 10:03:18;;;;;;;;;;;18.90;60.30;;;;;;5115248;28;20014;-56
2023/07/30 10:05:46;;;;;;;;;;;18.80;59.50;;;;;;5113365;28;19935;-53
2023/07/30 10:08:16;;;;;;;;;;;18.80;58.50;;;;;;5114067;28;19970;-52
2023/07/30 10:10:44;;;;;;;;;;;18.90;60.80;;;;;;5098866;28;19928;-54
2023/07/30 10:13:12;;;;;;;;;;;18.90;60.70;;;;;;5093204;28;19924;-55
2023/07/30 10:15:39;;;;;;;;;;;18.90;60.20;;;;;;5093240;28;20005;-52
2023/07/30 10:18:06;;;;;;;;;;;18.90;60.60;;;;;;5094319;28;20418;-51
2023/07/30 10:20:33;;;;;;;;;;;18.80;60.30;;;;;;5093245;28;19986;-52
2023/07/30 10:23:01;;;;;;;;;;;18.90;61.20;;;;;;5094176;28;19978;-55
2023/07/30 10:25:47;;;;;;;;;;;18.90;61.50;;;;;;5093946;28;19924;-54
2023/07/30 10:28:31;;;;;;;;;;;18.90;59.90;;;;;;5093145;28;19977;-52
2023/07/30 10:31:03;;;;;;;;;;;18.90;59.60;;;;;;5094191;28;19924;-53
2023/07/30 10:33:45;;;;;;;;;;;19.00;59.30;;;;;;5093930;28;19928;-54
2023/07/30 10:36:12;;;;;;;;;;;19.10;58.80;;;;;;5093898;28;19924;-53
2023/07/30 10:38:41;;;;;;;;;;;19.10;60.50;;;;;;5093725;28;19978;-53
2023/07/30 10:41:17;;;;;;;;;;;19.10;59.20;;;;;;5093970;28;20022;-51
2023/07/30 10:43:49;;;;;;;;;;;19.20;56.30;;;;;;5092973;28;19926;-53
2023/07/30 10:46:20;;;;;;;;;;;19.30;58.60;;;;;;5093395;28;19924;-55
2023/07/30 10:48:48;;;;;;;;;;;19.30;58.50;;;;;;5102340;28;20326;-55
2023/07/30 10:51:16;;;;;;;;;;;19.40;58.00;;;;;;5106340;28;20035;-53
2023/07/30 10:53:44;;;;;;;;;;;19.40;60.60;;;;;;5093772;28;19924;-54
2023/07/30 10:56:12;;;;;;;;;;;19.40;60.50;;;;;;5093411;28;20344;-56
2023/07/30 10:58:39;;;;;;;;;;;19.50;58.40;;;;;;5094040;28;19959;-56
2023/07/30 11:01:07;;;;;;;;;;;19.50;58.40;;;;;;5093220;28;19982;-54
2023/07/30 11:03:34;;;;;;;;;;;19.60;57.10;;;;;;5099418;28;20019;-54
2023/07/30 11:06:02;;;;;;;;;;;19.70;59.00;;;;;;5113862;28;20289;-55
2023/07/30 11:08:33;;;;;;;;;;;19.70;59.40;;;;;;5113867;28;19928;-56
2023/07/30 11:11:00;;;;;;;;;;;19.80;57.40;;;;;;5113851;28;19932;-56
2023/07/30 11:13:27;;;;;;;;;;;19.80;57.60;;;;;;5112438;28;19967;-55
2023/07/30 11:15:55;;;;;;;;;;;19.80;56.50;;;;;;5113020;28;19954;-54
2023/07/30 11:18:21;;;;;;;;;;;19.90;56.60;;;;;;5112769;28;20384;-54
2023/07/30 11:20:49;;;;;;;;;;;20.00;58.20;;;;;;5112809;28;19924;-55
2023/07/30 11:23:20;;;;;;;;;;;20.00;55.30;;;;;;5113046;28;19970;-55
2023/07/30 11:25:50;;;;;;;;;;;20.10;57.60;;;;;;5113110;28;20404;-53
2023/07/30 11:28:28;;;;;;;;;;;20.10;57.20;;;;;;5112882;28;19923;-53
2023/07/30 11:31:08;;;;;;;;;;;20.10;56.10;;;;;;5113404;28;19955;-54
2023/07/30 11:33:36;;;;;;;;;;;20.20;58.90;;;;;;5112690;28;20342;-55
2023/07/30 11:36:06;;;;;;;;;;;20.10;58.50;;;;;;5113250;28;20379;-55
2023/07/30 11:38:33;;;;;;;;;;;20.10;58.00;;;;;;5110993;28;19984;-56
2023/07/30 11:41:00;;;;;;;;;;;20.10;56.90;;;;;;5112860;28;19931;-55
2023/07/30 11:43:27;;;;;;;;;;;20.10;56.50;;;;;;5095590;28;19964;-54
2023/07/30 11:46:09;;;;;;;;;;;20.10;57.80;;;;;;5093355;28;19953;-53
2023/07/30 11:48:36;;;;;;;;;;;20.10;57.30;;;;;;5093092;28;19978;-52
2023/07/30 11:51:03;;;;;;;;;;;20.10;58.10;;;;;;5092683;28;19993;-54
2023/07/30 11:53:49;;;;;;;;;;;20.10;57.70;;;;;;5092585;28;19932;-54
2023/07/30 11:56:18;;;;;;;;;;;20.10;56.00;;;;;;5093015;28;19924;-52
2023/07/30 11:58:46;;;;;;;;;;;20.10;55.80;;;;;;5092499;28;19967;-55
2023/07/30 12:01:13;;;;;;;;;;;20.20;57.70;;;;;;5092733;28;19982;-53
2023/07/30 12:03:41;;;;;;;;;;;20.20;56.80;;;;;;5092340;28;19936;-56
2023/07/30 12:06:11;;;;;;;;;;;20.30;58.30;;;;;;5092823;28;20327;-53
2023/07/30 12:08:38;;;;;;;;;;;20.30;59.00;;;;;;5092547;28;19928;-55
2023/07/30 12:11:07;;;;;;;;;;;20.30;57.70;;;;;;5092863;28;20017;-54
2023/07/30 12:13:34;;;;;;;;;;;20.40;58.90;;;;;;5092471;28;19956;-55
2023/07/30 12:16:04;;;;;;;;;;;20.40;58.40;;;;;;5092028;28;19924;-53
2023/07/30 12:18:32;;;;;;;;;;;20.40;57.80;;;;;;5091766;28;20449;-55
2023/07/30 12:20:58;;;;;;;;;;;20.40;59.20;;;;;;5091978;28;20010;-55
2023/07/30 12:23:26;;;;;;;;;;;20.40;58.90;;;;;;5093487;28;19970;-54
2023/07/30 12:25:53;;;;;;;;;;;20.40;59.60;;;;;;5096133;28;19963;-55
2023/07/30 12:28:20;;;;;;;;;;;20.50;58.20;;;;;;5096683;28;20347;-53
2023/07/30 12:30:48;;;;;;;;;;;20.50;58.10;;;;;;5095804;28;19937;-52
2023/07/30 12:33:15;;;;;;;;;;;20.40;57.50;;;;;;5095920;28;19924;-54
2023/07/30 12:35:42;;;;;;;;;;;20.50;57.40;;;;;;5106499;28;19971;-54
2023/07/30 12:38:09;;;;;;;;;;;20.50;58.20;;;;;;5117077;28;20041;-53
2023/07/30 12:40:36;;;;;;;;;;;20.50;56.60;;;;;;5116546;28;19990;-53
2023/07/30 12:43:03;;;;;;;;;;;20.60;56.30;;;;;;5116306;28;19934;-55
2023/07/30 12:45:31;;;;;;;;;;;20.60;57.10;;;;;;5115956;28;20422;-55
2023/07/30 12:48:00;;;;;;;;;;;20.60;58.00;;;;;;5116275;28;19924;-54
2023/07/30 12:50:27;;;;;;;;;;;20.60;59.40;;;;;;5116076;28;20407;-54
2023/07/30 12:52:54;;;;;;;;;;;20.60;55.40;;;;;;5116153;28;20273;-52
2023/07/30 12:55:21;;;;;;;;;;;20.70;58.90;;;;;;5115724;28;19985;-55
2023/07/30 12:57:48;;;;;;;;;;;20.70;55.90;;;;;;5115738;28;19924;-52
2023/07/30 13:00:16;;;;;;;;;;;20.70;56.50;;;;;;5116048;28;19924;-56
2023/07/30 13:02:43;;;;;;;;;;;20.70;58.50;;;;;;5116646;28;19969;-53
2023/07/30 13:05:10;;;;;;;;;;;20.80;58.20;;;;;;5115757;28;19923;-55
2023/07/30 13:07:37;;;;;;;;;;;20.80;57.90;;;;;;5100422;28;20359;-53
2023/07/30 13:10:08;;;;;;;;;;;20.80;56.80;;;;;;5094180;28;19924;-55
2023/07/30 13:12:35;;;;;;;;;;;20.90;57.50;;;;;;5095832;28;19975;-55
2023/07/30 13:15:02;;;;;;;;;;;20.90;57.00;;;;;;5095533;28;19928;-56
2023/07/30 13:17:30;;;;;;;;;;;20.90;58.40;;;;;;5094919;28;19931;-53
2023/07/30 13:19:57;;;;;;;;;;;20.90;58.60;;;;;;5094892;28;19928;-54
2023/07/30 13:22:24;;;;;;;;;;;20.90;59.00;;;;;;5095092;28;19960;-56
2023/07/30 13:24:51;;;;;;;;;;;20.90;56.50;;;;;;5095171;28;20439;-54
2023/07/30 13:27:18;;;;;;;;;;;20.90;57.60;;;;;;5095424;28;19924;-56
2023/07/30 13:29:46;;;;;;;;;;;21.00;58.40;;;;;;5095279;28;19975;-55
2023/07/30 13:32:13;;;;;;;;;;;20.90;58.50;;;;;;5099826;28;19923;-55
2023/07/30 13:34:40;;;;;;;;;;;20.90;58.10;;;;;;5114865;28;20277;-56
2023/07/30 13:37:07;;;;;;;;;;;21.00;57.70;;;;;;5115339;28;19971;-55
2023/07/30 13:39:34;;;;;;;;;;;21.00;59.30;;;;;;5114509;28;20085;-53
2023/07/30 13:42:02;;;;;;;;;;;21.00;58.10;;;;;;5114704;28;20442;-55
2023/07/30 13:44:29;;;;;;;;;;;21.10;56.70;;;;;;5102185;28;20035;-54
2023/07/30 13:46:56;;;;;;;;;;;21.10;59.10;;;;;;5095044;28;20022;-54
2023/07/30 13:49:23;;;;;;;;;;;21.10;58.50;;;;;;5095256;28;20323;-53
2023/07/30 13:51:50;;;;;;;;;;;21.20;57.30;;;;;;5094142;28;19977;-55
2023/07/30 13:54:17;;;;;;;;;;;21.20;57.40;;;;;;5094976;28;19928;-51
2023/07/30 13:56:44;;;;;;;;;;;21.20;56.80;;;;;;5094484;28;20011;-54
2023/07/30 13:59:11;;;;;;;;;;;21.20;57.30;;;;;;5094798;28;20415;-53
2023/07/30 14:01:38;;;;;;;;;;;21.20;57.70;;;;;;5095138;28;20038;-55
2023/07/30 14:04:06;;;;;;;;;;;21.20;58.70;;;;;;5094711;28;19924;-53
2023/07/30 14:06:33;;;;;;;;;;;21.30;67.90;;;;;;5094489;28;19977;-54
2023/07/30 14:09:00;;;;;;;;;;;21.60;72.70;;;;;;5095224;28;20002;-51
2023/07/30 14:11:27;;;;;;;;;;;21.90;75.00;;;;;;5113971;28;19924;-55
2023/07/30 14:13:55;;;;;;;;;;;22.20;76.00;;;;;;5115428;28;19924;-53
2023/07/30 14:16:22;;;;;;;;;;;22.50;75.90;;;;;;5114928;28;19979;-54
2023/07/30 14:18:49;;;;;;;;;;;22.70;75.50;;;;;;5115060;28;19927;-54